Time;durP1;ratioP1;P1;durP2;ratioP2;P2;SDS_P1;SDS_P2;PMS_P1;PMS_P2;Temp;Humidity;BMP_temperature;BMP_pressure;BME280_temperature;BME280_humidity;BME280_pressure;Samples;Min_cycle;Max_cycle;Signal;HPM_P1;HPM_P2
2022/06/07 00:01:34;;;;;;;;;2.00;2.00;;;;;35.60;22.23;101094.19;5095661;27;45917;-78
2022/06/07 00:04:00;;;;;;;;;2.67;1.67;;;;;35.71;22.49;101096.06;5095875;27;45431;-78
2022/06/07 00:06:27;;;;;;;;;3.00;2.00;;;;;35.70;22.42;101095.19;5095733;27;45455;-77
2022/06/07 00:08:53;;;;;;;;;2.00;2.00;;;;;35.67;22.32;101094.56;5095464;27;45376;-77
2022/06/07 00:11:19;;;;;;;;;2.33;2.33;;;;;35.70;22.28;101083.28;5095234;27;45425;-78
2022/06/07 00:13:45;;;;;;;;;1.00;1.00;;;;;35.67;22.16;101089.91;5095226;27;45584;-77
2022/06/07 00:16:12;;;;;;;;;1.67;1.67;;;;;35.54;22.83;101078.13;5095331;27;45316;-78
2022/06/07 00:18:38;;;;;;;;;2.00;2.00;;;;;35.34;22.78;101077.00;5095299;27;45430;-78
2022/06/07 00:21:04;;;;;;;;;2.00;2.00;;;;;35.05;23.06;101077.44;5095256;27;45479;-78
2022/06/07 00:23:31;;;;;;;;;1.33;1.33;;;;;35.00;23.19;101071.41;5095591;27;45491;-77
2022/06/07 00:25:58;;;;;;;;;2.00;2.00;;;;;35.11;23.24;101079.69;5095550;27;45581;-78
2022/06/07 00:28:25;;;;;;;;;1.00;1.00;;;;;35.15;22.72;101074.81;5094973;27;45390;-78
2022/06/07 00:30:53;;;;;;;;;3.00;2.00;;;;;35.04;22.76;101083.94;5095473;27;45357;-78
2022/06/07 00:33:20;;;;;;;;;0.33;0.33;;;;;34.99;23.39;101069.63;5095586;27;45551;-77
2022/06/07 00:35:46;;;;;;;;;2.67;1.67;;;;;35.12;23.34;101075.94;5095280;27;45459;-78
2022/06/07 00:38:12;;;;;;;;;1.33;1.33;;;;;35.09;23.14;101073.41;5095029;27;45570;-78
2022/06/07 00:40:38;;;;;;;;;1.67;1.67;;;;;35.18;23.04;101069.06;5095352;27;45441;-78
2022/06/07 00:43:03;;;;;;;;;1.00;1.00;;;;;35.20;22.89;101062.41;5094917;27;45396;-78
2022/06/07 00:45:29;;;;;;;;;1.00;1.00;;;;;35.19;23.33;101049.63;5095429;27;45439;-78
2022/06/07 00:47:54;;;;;;;;;1.00;1.00;;;;;35.26;22.96;101058.28;5094947;27;45326;-78
2022/06/07 00:50:29;;;;;;;;;1.33;1.33;;;;;35.35;22.92;101057.56;5095961;27;45335;-78
2022/06/07 00:52:55;;;;;;;;;1.33;1.33;;;;;35.27;23.07;101042.59;5098805;27;45389;-78
2022/06/07 00:55:20;;;;;;;;;1.00;1.00;;;;;35.34;23.00;101057.69;5097387;27;45486;-78
2022/06/07 00:57:46;;;;;;;;;1.00;1.00;;;;;35.27;22.97;101050.88;5098173;27;46565;-78
2022/06/07 01:00:14;;;;;;;;;3.00;1.00;;;;;35.29;23.22;101047.00;5098512;27;45326;-78
2022/06/07 01:02:40;;;;;;;;;2.00;2.00;;;;;35.29;23.02;101038.72;5098645;27;45378;-78
2022/06/07 01:05:06;;;;;;;;;1.00;1.00;;;;;35.19;22.98;101029.44;5098488;27;45651;-78
2022/06/07 01:12:59;;;;;;;;;1.00;1.00;;;;;34.99;23.69;101036.56;5097802;27;45741;-78
2022/06/07 01:15:24;;;;;;;;;1.00;1.00;;;;;34.84;23.84;101030.41;5098266;27;45473;-78
2022/06/07 01:17:49;;;;;;;;;1.33;1.33;;;;;34.84;23.99;101028.50;5097917;27;45766;-77
2022/06/07 01:20:15;;;;;;;;;1.00;1.00;;;;;34.78;24.11;101033.59;5113913;27;46152;-78
2022/06/07 01:22:40;;;;;;;;;1.67;1.67;;;;;34.77;23.60;101020.81;5098301;27;45504;-78
2022/06/07 01:25:07;;;;;;;;;1.00;1.00;;;;;34.79;23.94;101025.19;5097895;27;45506;-78
2022/06/07 01:27:32;;;;;;;;;1.00;1.00;;;;;34.82;24.15;101021.38;5097833;27;45552;-78
2022/06/07 01:29:57;;;;;;;;;1.00;1.00;;;;;34.69;24.03;101011.28;5098028;27;45306;-77
2022/06/07 01:32:23;;;;;;;;;1.67;1.00;;;;;34.60;23.97;101030.41;5097850;27;46386;-78
2022/06/07 01:34:48;;;;;;;;;1.00;1.00;;;;;34.54;24.42;101012.47;5097989;27;45593;-78
2022/06/07 01:37:17;;;;;;;;;1.00;1.00;;;;;34.71;24.19;101033.19;5097711;27;45418;-78
2022/06/07 01:42:26;;;;;;;;;1.00;1.00;;;;;34.79;23.89;101029.84;5097746;27;45370;-78
2022/06/07 01:44:52;;;;;;;;;1.00;1.00;;;;;34.77;23.99;101007.03;5097970;27;45384;-78
2022/06/07 01:47:27;;;;;;;;;3.00;1.00;;;;;34.93;23.87;101031.53;5097497;27;46150;-78
2022/06/07 01:49:53;;;;;;;;;1.00;1.00;;;;;34.81;24.21;101027.88;5096542;27;45557;-78
2022/06/07 01:52:22;;;;;;;;;2.00;2.00;;;;;34.71;24.19;101005.63;5097500;27;45321;-78
2022/06/07 01:54:47;;;;;;;;;0.67;0.67;;;;;34.99;23.98;101020.91;5097527;27;45595;-77
2022/06/07 01:57:13;;;;;;;;;1.33;1.33;;;;;34.94;24.08;101022.28;5097414;27;46431;-78
2022/06/07 01:59:39;;;;;;;;;1.00;1.00;;;;;34.94;24.01;101017.63;5097506;27;45443;-77
2022/06/07 02:02:06;;;;;;;;;2.00;2.00;;;;;34.81;24.16;101020.50;5097238;27;45448;-78
2022/06/07 02:04:34;;;;;;;;;2.00;2.00;;;;;34.60;24.00;101017.53;5096206;27;45475;-78
2022/06/07 02:06:59;;;;;;;;;1.00;1.00;;;;;34.53;24.34;101010.75;5096074;27;47279;-78
2022/06/07 02:09:26;;;;;;;;;1.67;1.67;;;;;34.65;24.34;101011.66;5097143;27;45405;-78
2022/06/07 02:11:51;;;;;;;;;2.00;2.00;;;;;34.87;24.22;101011.72;5097230;27;45442;-78
2022/06/07 02:14:16;;;;;;;;;1.67;1.33;;;;;34.81;24.63;101011.34;5096966;27;45286;-78
2022/06/07 02:16:42;;;;;;;;;1.00;1.00;;;;;34.75;24.32;100987.88;5097390;27;45446;-78
2022/06/07 02:19:07;;;;;;;;;1.67;1.00;;;;;34.78;24.31;101009.69;5096704;27;45434;-78
2022/06/07 02:21:33;;;;;;;;;1.00;1.00;;;;;34.90;24.11;100996.81;5097134;27;45337;-78
2022/06/07 02:23:59;;;;;;;;;1.67;1.67;;;;;35.01;24.10;100998.72;5096962;27;45468;-78
2022/06/07 02:26:32;;;;;;;;;2.67;2.67;;;;;34.96;24.22;101001.84;5096951;27;45466;-78
2022/06/07 02:29:01;;;;;;;;;1.00;1.00;;;;;34.97;24.11;100989.81;5097069;27;45487;-78
2022/06/07 02:31:29;;;;;;;;;1.67;1.67;;;;;34.94;23.94;100979.03;5097102;27;45370;-78
2022/06/07 02:33:57;;;;;;;;;1.00;1.00;;;;;34.97;24.42;100988.94;5095821;27;45552;-78
2022/06/07 02:36:23;;;;;;;;;2.00;2.00;;;;;34.90;24.51;100993.19;5095272;27;46161;-78
2022/06/07 02:38:49;;;;;;;;;2.00;2.00;;;;;34.86;24.22;100971.38;5096488;27;45320;-78
2022/06/07 02:41:18;;;;;;;;;1.50;1.00;;;;;34.97;24.23;100984.31;5095599;27;45385;-77
2022/06/07 02:43:45;;;;;;;;;1.33;1.33;;;;;34.91;24.71;100973.78;5097005;27;45492;-78
2022/06/07 02:46:10;;;;;;;;;1.00;1.00;;;;;34.96;24.50;100965.13;5096363;27;46340;-78
2022/06/07 02:48:36;;;;;;;;;1.67;1.67;;;;;35.11;24.58;100971.28;5096929;27;45411;-77
2022/06/07 02:51:01;;;;;;;;;1.33;1.33;;;;;35.19;24.02;100972.41;5096745;27;45473;-77
2022/06/07 02:53:27;;;;;;;;;1.00;1.00;;;;;35.13;24.44;100969.25;5096418;27;45406;-78
2022/06/07 02:55:52;;;;;;;;;1.00;1.00;;;;;34.95;24.69;100953.25;5096691;27;46430;-78
2022/06/07 02:58:17;;;;;;;;;1.00;1.00;;;;;35.05;24.71;100964.41;5096217;27;45527;-77
2022/06/07 03:00:43;;;;;;;;;2.00;2.00;;;;;35.02;24.42;100953.59;5096645;27;45326;-77
2022/06/07 03:03:09;;;;;;;;;1.00;1.00;;;;;34.98;24.38;100971.38;5096632;27;45667;-78
2022/06/07 03:05:34;;;;;;;;;3.00;3.00;;;;;34.90;24.46;100954.59;5112412;27;47029;-78
2022/06/07 03:07:59;;;;;;;;;2.00;2.00;;;;;34.89;24.63;100936.31;5096489;27;45298;-78
2022/06/07 03:10:25;;;;;;;;;2.00;2.00;;;;;34.99;24.55;100949.22;5096267;27;45287;-78
2022/06/07 03:12:50;;;;;;;;;1.67;1.67;;;;;34.91;24.57;100940.69;5095176;27;45459;-78
2022/06/07 03:15:16;;;;;;;;;2.67;2.00;;;;;34.94;24.93;100951.47;5096228;27;45400;-78
2022/06/07 03:17:41;;;;;;;;;2.00;2.00;;;;;34.88;24.51;100929.91;5096265;27;45419;-78
2022/06/07 03:20:08;;;;;;;;;2.00;2.00;;;;;35.05;24.85;100956.13;5096233;27;45333;-77
2022/06/07 03:22:34;;;;;;;;;1.00;1.00;;;;;35.08;24.99;100961.38;5096030;27;45387;-77
2022/06/07 03:25:05;;;;;;;;;2.00;2.00;;;;;35.00;24.75;100939.94;5094809;27;46312;-77
2022/06/07 03:27:35;;;;;;;;;2.00;2.00;;;;;35.12;24.20;100950.97;5094608;27;45846;-78
2022/06/07 03:30:09;;;;;;;;;2.33;2.00;;;;;35.08;24.62;100960.47;5096477;27;45539;-77
2022/06/07 03:32:35;;;;;;;;;2.00;2.00;;;;;34.94;24.75;100961.63;5096183;27;45393;-78
2022/06/07 03:35:01;;;;;;;;;3.67;2.00;;;;;34.77;24.89;100930.75;5095942;27;46400;-78
2022/06/07 03:37:27;;;;;;;;;1.67;1.67;;;;;34.85;24.69;100953.09;5095634;27;45376;-78
2022/06/07 03:39:52;;;;;;;;;2.00;2.00;;;;;34.83;24.89;100948.72;5096154;27;45420;-78
2022/06/07 03:42:18;;;;;;;;;3.33;2.00;;;;;34.82;24.90;100942.31;5095755;27;45433;-78
2022/06/07 03:44:48;;;;;;;;;2.00;2.00;;;;;34.81;25.11;100951.59;5096113;27;45246;-78
2022/06/07 03:47:16;;;;;;;;;3.00;3.00;;;;;34.87;24.98;100953.84;5095811;27;45456;-78
2022/06/07 03:49:42;;;;;;;;;3.00;2.00;;;;;34.93;25.12;100962.63;5094796;27;45548;-77
2022/06/07 03:52:07;;;;;;;;;3.00;3.00;;;;;34.80;24.84;100938.81;5095584;27;45581;-77
2022/06/07 03:54:33;;;;;;;;;2.33;2.33;;;;;34.87;25.21;100959.34;5094318;27;47160;-77
2022/06/07 03:56:58;;;;;;;;;3.00;3.00;;;;;34.87;24.84;100950.22;5095773;27;45350;-78
2022/06/07 03:59:24;;;;;;;;;2.33;2.33;;;;;34.98;24.98;100972.28;5095676;27;45315;-78
2022/06/07 04:01:50;;;;;;;;;2.00;2.00;;;;;34.72;25.24;100960.56;5096015;27;45399;-77
2022/06/07 04:04:16;;;;;;;;;2.00;2.00;;;;;34.79;24.89;100953.53;5095410;27;46225;-77
2022/06/07 04:09:29;;;;;;;;;2.67;2.00;;;;;34.99;24.68;100970.38;5095686;27;45475;-77
2022/06/07 04:11:54;;;;;;;;;2.00;2.00;;;;;34.84;25.34;100955.97;5094238;27;45413;-77
2022/06/07 04:14:20;;;;;;;;;3.00;3.00;;;;;34.81;25.58;100954.34;5095136;27;46245;-77
2022/06/07 04:16:45;;;;;;;;;2.00;2.00;;;;;34.88;24.68;100957.47;5095740;27;45405;-77
2022/06/07 04:19:10;;;;;;;;;3.00;3.00;;;;;34.79;25.48;100956.31;5095328;27;45430;-76
2022/06/07 04:21:36;;;;;;;;;3.67;2.33;;;;;34.77;25.21;100954.66;5095139;27;45374;-76
2022/06/07 04:24:01;;;;;;;;;2.00;1.00;;;;;34.72;25.68;100945.91;5095775;27;45533;-76
2022/06/07 04:26:30;;;;;;;;;2.00;2.00;;;;;34.77;25.09;100957.41;5097486;27;45451;-77
2022/06/07 04:28:58;;;;;;;;;2.67;2.00;;;;;34.71;25.68;100972.56;5099077;27;45390;-77
2022/06/07 04:31:25;;;;;;;;;4.67;4.00;;;;;34.43;26.37;100958.25;5097659;27;45352;-77
2022/06/07 04:33:50;;;;;;;;;3.00;3.00;;;;;34.31;26.79;100970.22;5099040;27;46417;-77
2022/06/07 04:36:21;;;;;;;;;2.00;2.00;;;;;34.38;26.90;100957.72;5098107;27;45616;-71
2022/06/07 04:38:48;;;;;;;;;3.00;3.00;;;;;34.56;26.97;100966.41;5097191;27;45472;-70
2022/06/07 04:41:17;;;;;;;;;3.00;3.00;;;;;34.80;26.40;100960.84;5098727;27;45543;-70
2022/06/07 04:43:42;;;;;;;;;4.33;3.67;;;;;34.86;26.34;100968.63;5098722;27;45325;-71
2022/06/07 04:46:11;;;;;;;;;3.00;2.00;;;;;34.79;26.32;100958.19;5098631;27;45413;-71
2022/06/07 04:48:41;;;;;;;;;3.00;3.00;;;;;34.94;26.28;100956.13;5097071;27;45463;-72
2022/06/07 04:51:15;;;;;;;;;3.00;3.00;;;;;35.06;26.12;100962.50;5097403;27;45542;-72
2022/06/07 04:53:41;;;;;;;;;5.33;3.00;;;;;35.10;26.24;100950.22;5098353;27;45457;-71
2022/06/07 04:56:11;;;;;;;;;2.67;2.67;;;;;35.11;26.23;100944.56;5098331;27;45304;-72
2022/06/07 04:58:36;;;;;;;;;4.00;2.67;;;;;35.06;26.11;100955.09;5098514;27;45287;-71
2022/06/07 05:01:11;;;;;;;;;3.00;3.00;;;;;35.22;26.19;100963.88;5098280;27;45365;-71
2022/06/07 05:03:37;;;;;;;;;2.67;2.67;;;;;35.24;26.23;100963.75;5097605;27;47539;-73
2022/06/07 05:06:03;;;;;;;;;2.00;2.00;;;;;35.27;26.18;100957.97;5098386;27;45496;-76
2022/06/07 05:08:28;;;;;;;;;1.67;1.67;;;;;35.22;26.18;100949.22;5098137;27;45475;-76
2022/06/07 05:10:54;;;;;;;;;3.00;3.00;;;;;35.29;26.22;100966.13;5098195;27;45453;-75
2022/06/07 05:13:22;;;;;;;;;2.67;2.67;;;;;35.24;26.40;100965.63;5097719;27;45661;-79
2022/06/07 05:15:54;;;;;;;;;3.00;3.00;;;;;35.14;26.37;100971.91;5096780;27;45446;-75
2022/06/07 05:18:20;;;;;;;;;3.00;3.00;;;;;35.15;26.78;100961.75;5096184;27;45469;-76
2022/06/07 05:20:45;;;;;;;;;3.00;3.00;;;;;35.09;26.54;100954.84;5113813;27;45552;-77
2022/06/07 05:23:11;;;;;;;;;4.00;3.00;;;;;35.21;26.47;100961.25;5097757;27;45350;-76
2022/06/07 05:25:36;;;;;;;;;4.00;3.00;;;;;35.25;26.55;100953.56;5097824;27;45453;-76
2022/06/07 05:28:02;;;;;;;;;3.00;3.00;;;;;35.27;26.61;100963.47;5097732;27;45716;-74
2022/06/07 05:30:30;;;;;;;;;5.00;3.67;;;;;35.18;26.16;100945.81;5097510;27;45467;-75
2022/06/07 05:32:55;;;;;;;;;3.00;3.00;;;;;35.26;26.50;100955.34;5097386;27;45409;-74
2022/06/07 05:35:21;;;;;;;;;3.67;3.00;;;;;35.19;26.58;100958.63;5095016;27;45378;-74
2022/06/07 05:37:47;;;;;;;;;3.00;3.00;;;;;35.20;26.31;100962.25;5096667;27;45356;-74
2022/06/07 05:40:12;;;;;;;;;3.00;3.00;;;;;35.14;26.42;100966.38;5095512;27;45436;-74
2022/06/07 05:42:37;;;;;;;;;4.00;3.00;;;;;35.21;26.35;100970.38;5096572;27;46305;-75
2022/06/07 05:45:03;;;;;;;;;3.67;3.67;;;;;35.12;26.86;100964.75;5096194;27;47412;-74
2022/06/07 05:47:30;;;;;;;;;3.00;3.00;;;;;35.27;26.88;100970.91;5097529;27;45597;-78
2022/06/07 05:49:55;;;;;;;;;4.00;4.00;;;;;35.25;26.44;100961.84;5114146;27;45567;-75
2022/06/07 05:52:20;;;;;;;;;3.00;3.00;;;;;35.00;26.96;100969.41;5102618;27;45369;-84
2022/06/07 05:54:46;;;;;;;;;4.67;3.00;;;;;35.06;26.77;100946.81;5116638;27;45453;-83
2022/06/07 05:57:11;;;;;;;;;2.67;2.67;;;;;35.11;26.72;100963.00;5100205;27;45372;-80
2022/06/07 05:59:36;;;;;;;;;4.00;4.00;;;;;35.02;26.50;100960.00;5097539;27;45330;-77
2022/06/07 06:02:02;;;;;;;;;4.00;4.00;;;;;35.05;27.03;100969.91;5098942;27;53064;-77
2022/06/07 06:04:28;;;;;;;;;3.67;3.67;;;;;34.92;27.02;100947.09;5079057;27;45527;-77
2022/06/07 06:06:58;;;;;;;;;5.00;3.00;;;;;35.05;26.44;100964.41;5085197;27;45428;-77
2022/06/07 06:12:09;;;;;;;;;3.00;3.00;;;;;34.97;26.52;100965.00;5084378;27;45920;-76
2022/06/07 06:14:34;;;;;;;;;3.00;3.00;;;;;34.95;26.63;100957.84;5096417;27;45639;-77
2022/06/07 06:16:59;;;;;;;;;4.00;3.00;;;;;35.01;26.80;100971.16;5095961;27;45450;-76
2022/06/07 06:19:25;;;;;;;;;3.67;2.67;;;;;34.91;26.47;100961.84;5096390;27;45386;-76
2022/06/07 06:21:51;;;;;;;;;2.67;2.67;;;;;35.03;26.42;100972.75;5096480;27;45508;-77
2022/06/07 06:24:17;;;;;;;;;2.00;2.00;;;;;34.91;26.59;100972.88;5096220;27;45599;-74
2022/06/07 06:26:43;;;;;;;;;2.00;2.00;;;;;34.97;26.32;100975.16;5096054;27;45448;-74
2022/06/07 06:29:08;;;;;;;;;4.00;2.67;;;;;35.02;26.45;100984.81;5096125;27;45496;-74
2022/06/07 06:31:36;;;;;;;;;3.00;3.00;;;;;35.06;26.34;100992.81;5096660;27;47039;-74
2022/06/07 06:34:01;;;;;;;;;2.33;2.33;;;;;35.00;25.97;100972.16;5096301;27;45515;-74
2022/06/07 06:36:27;;;;;;;;;3.67;1.67;;;;;35.01;25.99;100972.03;5092418;27;45404;-74
2022/06/07 06:38:53;;;;;;;;;3.00;2.00;;;;;35.07;25.79;100987.19;5078895;27;45530;-74
2022/06/07 06:41:25;;;;;;;;;3.67;2.67;;;;;35.02;25.97;100993.09;5085931;27;45520;-74
2022/06/07 06:43:52;;;;;;;;;2.00;1.00;;;;;34.95;25.85;100978.03;5095637;27;45446;-74
2022/06/07 06:46:20;;;;;;;;;1.67;1.67;;;;;35.09;26.18;100992.56;5096362;27;45423;-74
2022/06/07 06:48:46;;;;;;;;;1.33;1.33;;;;;34.97;26.11;100988.94;5095162;27;45548;-74
2022/06/07 06:51:15;;;;;;;;;2.33;2.33;;;;;34.96;26.17;101000.97;5094758;27;47958;-74
2022/06/07 06:53:42;;;;;;;;;1.67;1.67;;;;;34.62;26.02;100993.47;5096199;27;45557;-74
2022/06/07 06:56:11;;;;;;;;;2.00;2.00;;;;;34.63;26.25;100989.72;5091982;27;45472;-74
2022/06/07 06:58:38;;;;;;;;;0.67;0.67;;;;;34.76;25.97;100986.88;5097697;27;45498;-74
2022/06/07 07:01:06;;;;;;;;;3.67;2.00;;;;;34.85;26.25;100996.31;5092070;27;45492;-74
2022/06/07 07:03:33;;;;;;;;;1.33;1.33;;;;;35.02;26.08;100992.19;5092272;27;45413;-74
2022/06/07 07:06:00;;;;;;;;;1.00;1.00;;;;;35.10;25.74;100994.34;5092429;27;46439;-74
2022/06/07 07:08:27;;;;;;;;;1.33;1.33;;;;;35.02;25.40;101003.22;5092421;27;45579;-74
2022/06/07 07:11:14;;;;;;;;;1.67;1.67;;;;;35.20;25.66;101009.13;5092147;27;45457;-74
2022/06/07 07:13:40;;;;;;;;;2.00;2.00;;;;;35.34;25.27;101002.50;5091011;27;45855;-73
2022/06/07 07:16:07;;;;;;;;;0.67;0.67;;;;;35.42;25.29;101007.41;5092507;27;45399;-74
2022/06/07 07:18:32;;;;;;;;;0.75;0.75;;;;;35.04;25.80;100992.97;5092264;27;45525;-74
2022/06/07 07:20:58;;;;;;;;;2.00;1.00;;;;;35.17;25.67;101001.97;5107946;27;48343;-73
2022/06/07 07:23:24;;;;;;;;;0.67;0.67;;;;;35.19;25.63;100982.53;5096784;27;45503;-74
2022/06/07 07:25:50;;;;;;;;;2.00;0.67;;;;;35.49;25.07;101000.38;5092366;27;45465;-73
2022/06/07 07:28:16;;;;;;;;;1.00;1.00;;;;;35.42;25.43;101012.94;5090975;27;45479;-74
2022/06/07 07:30:41;;;;;;;;;0.67;0.67;;;;;35.46;25.08;101008.88;5092811;27;46221;-74
2022/06/07 07:33:07;;;;;;;;;1.00;1.00;;;;;35.08;25.11;101008.25;5092067;27;45513;-74
2022/06/07 07:35:34;;;;;;;;;2.33;0.67;;;;;35.37;25.28;101016.94;5092127;27;45362;-74
2022/06/07 07:38:00;;;;;;;;;1.33;1.33;;;;;35.27;25.31;100995.72;5090732;27;45197;-74
2022/06/07 07:40:26;;;;;;;;;2.67;1.67;;;;;35.46;24.94;101009.78;5091536;27;46183;-74
2022/06/07 07:42:51;;;;;;;;;1.00;1.00;;;;;35.62;24.81;101000.22;5091576;27;45526;-73
2022/06/07 07:45:17;;;;;;;;;1.00;1.00;;;;;35.74;24.84;101015.78;5092135;27;45559;-74
2022/06/07 07:47:43;;;;;;;;;1.00;1.00;;;;;35.61;25.05;101010.38;5092551;27;46202;-74
2022/06/07 07:50:11;;;;;;;;;1.00;1.00;;;;;35.75;25.37;101017.50;5090513;27;46797;-73
2022/06/07 07:52:37;;;;;;;;;1.00;1.00;;;;;35.71;24.84;101025.19;5108038;27;45968;-74
2022/06/07 07:55:03;;;;;;;;;1.00;1.00;;;;;35.60;25.73;101027.97;5092193;27;45554;-74
2022/06/07 07:57:29;;;;;;;;;1.00;1.00;;;;;35.48;24.72;101010.53;5090969;27;45468;-73
2022/06/07 07:59:54;;;;;;;;;0.00;0.00;;;;;34.92;25.41;101002.22;5093356;27;46220;-74
2022/06/07 08:02:21;;;;;;;;;0.00;0.00;;;;;35.25;25.21;101019.78;5095318;27;45446;-74
2022/06/07 08:04:47;;;;;;;;;0.67;0.67;;;;;35.26;24.96;101024.28;5095608;27;45424;-74
2022/06/07 08:07:12;;;;;;;;;0.00;0.00;;;;;35.18;25.34;101008.38;5095943;27;45578;-74
2022/06/07 08:09:38;;;;;;;;;0.25;0.25;;;;;35.36;24.62;101003.28;5095989;27;46862;-74
2022/06/07 08:12:06;;;;;;;;;0.00;0.00;;;;;35.46;24.55;101008.88;5110953;27;45622;-74
2022/06/07 08:14:33;;;;;;;;;0.00;0.00;;;;;35.38;25.21;101015.06;5095582;27;45393;-74
2022/06/07 08:16:59;;;;;;;;;1.00;1.00;;;;;35.45;25.23;101008.03;5095237;27;45393;-74
2022/06/07 08:19:25;;;;;;;;;1.00;1.00;;;;;35.71;24.72;101024.28;5094835;27;45385;-74
2022/06/07 08:21:51;;;;;;;;;1.00;1.00;;;;;35.78;24.82;101022.78;5094962;27;45492;-74
2022/06/07 08:24:17;;;;;;;;;0.25;0.25;;;;;35.84;24.69;101014.03;5095124;27;45295;-74
2022/06/07 08:26:46;;;;;;;;;2.00;1.00;;;;;35.92;24.64;101013.34;5094254;27;45490;-74
2022/06/07 08:29:12;;;;;;;;;1.00;1.00;;;;;35.75;24.98;101009.22;5111382;27;47461;-74
2022/06/07 08:31:38;;;;;;;;;1.00;1.00;;;;;35.85;24.45;101003.84;5096717;27;45589;-74
2022/06/07 08:39:35;;;;;;;;;1.00;1.00;;;;;36.17;24.60;101017.66;5094815;27;45854;-74
2022/06/07 08:42:24;;;;;;;;;1.00;1.00;;;;;36.24;23.89;101012.50;5093162;27;45562;-74
2022/06/07 08:44:55;;;;;;;;;1.00;1.00;;;;;36.34;23.68;101007.09;5092792;27;45679;-73
2022/06/07 08:47:33;;;;;;;;;2.00;2.00;;;;;36.41;23.89;101002.78;5095003;27;45412;-74
2022/06/07 08:50:06;;;;;;;;;3.00;2.00;;;;;36.38;24.05;100992.88;5094575;27;45434;-74
2022/06/07 08:52:34;;;;;;;;;2.00;2.00;;;;;36.60;23.73;101001.16;5094797;27;45538;-74
2022/06/07 08:55:11;;;;;;;;;1.00;1.00;;;;;36.81;23.55;101002.09;5095429;27;45600;-74
2022/06/07 08:57:36;;;;;;;;;1.00;1.00;;;;;36.82;23.08;101009.38;5094217;27;45899;-74
2022/06/07 09:00:22;;;;;;;;;1.00;1.00;;;;;36.77;23.06;101008.00;5094478;27;47232;-74
2022/06/07 09:03:20;;;;;;;;;2.00;2.00;;;;;36.66;23.50;101004.28;5095350;27;45383;-74
2022/06/07 09:05:53;;;;;;;;;0.00;0.00;;;;;36.68;23.01;100998.59;5061874;27;45361;-74
2022/06/07 09:08:18;;;;;;;;;0.75;0.75;;;;;36.68;22.94;100993.97;5113445;27;45499;-73
2022/06/07 09:13:32;;;;;;;;;1.33;1.33;;;;;36.80;22.50;100997.56;5094595;27;45385;-73
2022/06/07 09:15:57;;;;;;;;;1.00;1.00;;;;;36.86;23.12;100997.00;5094937;27;45441;-74
2022/06/07 09:18:29;;;;;;;;;1.00;1.00;;;;;37.01;22.86;101002.22;5095373;27;45312;-74
2022/06/07 09:20:59;;;;;;;;;2.00;1.00;;;;;36.89;22.30;100991.22;5096922;27;45771;-74
2022/06/07 09:23:43;;;;;;;;;0.33;0.33;;;;;37.11;22.21;101005.88;5096791;27;45849;-73
2022/06/07 09:26:31;;;;;;;;;1.33;0.00;;;;;36.80;22.19;101003.09;5094690;27;45428;-74
2022/06/07 09:29:12;;;;;;;;;0.00;0.00;;;;;36.72;22.30;100994.56;5094761;27;45512;-74
2022/06/07 09:31:41;;;;;;;;;0.00;0.00;;;;;36.76;21.59;101009.00;5097132;27;45637;-74
2022/06/07 09:34:09;;;;;;;;;1.25;1.25;;;;;37.08;21.32;100992.34;5093322;27;45415;-74
2022/06/07 09:36:43;;;;;;;;;0.00;0.00;;;;;37.08;21.60;101007.03;5094372;27;45425;-74
2022/06/07 09:39:38;;;;;;;;;3.00;2.00;;;;;37.11;21.81;100997.59;5094711;27;45418;-74
2022/06/07 09:42:18;;;;;;;;;0.75;0.75;;;;;36.96;21.50;100999.81;5111110;27;47720;-74
2022/06/07 09:44:54;;;;;;;;;0.00;0.00;;;;;36.89;21.48;101001.41;5095589;27;45432;-73
2022/06/07 09:47:25;;;;;;;;;1.00;1.00;;;;;36.78;22.14;100993.16;5094684;27;45427;-74
2022/06/07 09:50:14;;;;;;;;;0.33;0.33;;;;;37.08;21.40;100995.09;5093828;27;45682;-73
2022/06/07 09:52:45;;;;;;;;;0.00;0.00;;;;;37.40;21.17;101002.41;5095026;27;47495;-74
2022/06/07 09:55:23;;;;;;;;;0.00;0.00;;;;;37.41;21.21;100996.75;5093517;27;45447;-74
2022/06/07 09:58:04;;;;;;;;;1.00;1.00;;;;;37.18;21.38;100987.72;5094102;27;45406;-74
2022/06/07 10:00:44;;;;;;;;;1.00;1.00;;;;;37.16;20.80;100997.16;5096813;27;45488;-74
2022/06/07 10:03:47;;;;;;;;;1.00;1.00;;;;;37.27;20.88;100987.91;5095908;27;45679;-74
2022/06/07 10:06:38;;;;;;;;;1.00;1.00;;;;;37.23;21.08;100995.59;5095434;27;45389;-74
2022/06/07 10:09:31;;;;;;;;;2.00;0.00;;;;;37.11;20.61;100983.75;5092695;27;45471;-74
2022/06/07 10:12:35;;;;;;;;;0.00;0.00;;;;;37.19;21.09;100970.13;5094728;27;45788;-74
2022/06/07 10:15:25;;;;;;;;;1.00;1.00;;;;;37.63;20.75;100980.91;5093766;27;45653;-74
2022/06/07 10:18:12;;;;;;;;;0.00;0.00;;;;;37.21;20.57;100983.81;5093228;27;45504;-74
2022/06/07 10:20:56;;;;;;;;;1.00;1.00;;;;;37.23;21.26;100990.94;5093418;27;45503;-74
2022/06/07 10:23:32;;;;;;;;;0.00;0.00;;;;;37.05;20.66;100971.34;5108451;27;46406;-75
2022/06/07 10:26:34;;;;;;;;;0.00;0.00;;;;;36.76;20.52;100943.53;5115317;27;48631;-75
2022/06/07 10:29:15;;;;;;;;;0.00;0.00;;;;;36.86;20.38;100972.13;5082470;27;45472;-75
2022/06/07 10:31:47;;;;;;;;;0.75;0.00;;;;;37.10;20.49;100976.47;5093619;27;45773;-75
2022/06/07 10:34:33;;;;;;;;;1.00;0.00;;;;;37.11;21.11;100960.75;5092382;27;45294;-75
2022/06/07 10:37:08;;;;;;;;;0.00;0.00;;;;;36.94;20.72;100981.66;5092369;27;46434;-75
2022/06/07 10:39:56;;;;;;;;;0.00;0.00;;;;;36.93;19.78;100983.50;5092945;27;45453;-75
2022/06/07 10:42:45;;;;;;;;;1.00;0.00;;;;;36.84;20.59;100960.34;5092944;27;45523;-75
2022/06/07 10:45:19;;;;;;;;;0.00;0.00;;;;;37.15;20.90;100970.53;5093530;27;45646;-74
2022/06/07 10:48:09;;;;;;;;;0.00;0.00;;;;;37.40;20.02;100959.00;5110971;27;47379;-75
2022/06/07 10:50:53;;;;;;;;;0.00;0.00;;;;;37.63;20.27;100967.06;5092780;27;45730;-75
2022/06/07 10:53:29;;;;;;;;;0.00;0.00;;;;;37.80;20.20;100961.88;5095041;27;45539;-75
2022/06/07 10:56:06;;;;;;;;;1.00;1.00;;;;;37.67;19.88;100964.91;5093986;27;45517;-76
2022/06/07 10:58:35;;;;;;;;;2.00;2.00;;;;;37.50;20.14;100963.72;5094357;27;45499;-76
2022/06/07 11:01:01;;;;;;;;;0.00;0.00;;;;;37.38;20.38;100962.94;5093354;27;45322;-76
2022/06/07 11:03:44;;;;;;;;;7.67;6.00;;;;;37.38;19.83;100976.75;5092742;27;45231;-77
2022/06/07 11:09:37;;;;;;;;;3.00;3.00;;;;;37.29;20.41;100969.31;5091017;27;45379;-76
2022/06/07 11:12:33;;;;;;;;;6.00;5.00;;;;;37.17;20.85;100955.53;5091579;27;45504;-76
2022/06/07 11:15:16;;;;;;;;;1.50;1.50;;;;;37.00;20.34;100972.78;5092704;27;45503;-77
2022/06/07 11:17:54;;;;;;;;;2.00;0.00;;;;;36.81;20.85;100949.56;5109005;27;45472;-76
2022/06/07 11:20:22;;;;;;;;;1.00;1.00;;;;;37.03;20.17;100965.09;5093682;27;46725;-76
2022/06/07 11:23:00;;;;;;;;;0.00;0.00;;;;;37.35;20.34;100966.84;5093188;27;45402;-76
2022/06/07 11:25:43;;;;;;;;;1.00;0.00;;;;;37.37;20.35;100950.09;5093447;27;45484;-76
2022/06/07 11:28:32;;;;;;;;;0.33;0.33;;;;;37.54;20.09;100951.31;5093618;27;45437;-75
2022/06/07 11:31:25;;;;;;;;;0.00;0.00;;;;;37.53;20.01;100955.97;5093703;27;46385;-76
2022/06/07 11:33:50;;;;;;;;;0.00;0.00;;;;;37.48;20.77;100962.94;5090161;27;45467;-76
2022/06/07 11:36:30;;;;;;;;;0.00;0.00;;;;;37.55;20.53;100964.13;5092946;27;45457;-76
2022/06/07 11:41:40;;;;;;;;;1.00;1.00;;;;;37.63;20.45;100961.53;5092215;27;45878;-76
2022/06/07 11:44:10;;;;;;;;;1.00;1.00;;;;;37.59;20.65;100962.84;5093760;27;45543;-76
2022/06/07 11:46:35;;;;;;;;;5.00;5.00;;;;;37.69;19.64;100965.63;5094991;27;45426;-76
2022/06/07 11:49:24;;;;;;;;;0.00;0.00;;;;;37.70;20.06;100961.84;5093077;27;45428;-76
2022/06/07 11:51:59;;;;;;;;;0.00;0.00;;;;;37.47;20.27;100950.13;5093297;27;45757;-76
2022/06/07 11:54:43;;;;;;;;;1.75;0.00;;;;;37.60;19.91;100950.75;5093312;27;45480;-76
2022/06/07 11:57:32;;;;;;;;;0.00;0.00;;;;;37.79;19.14;100946.28;5091856;27;45727;-76
2022/06/07 12:00:20;;;;;;;;;1.00;1.00;;;;;37.93;18.88;100935.66;5048565;28;45595;-76
2022/06/07 12:02:57;;;;;;;;;1.00;0.00;;;;;37.78;19.17;100939.88;5052872;28;46336;-76
2022/06/07 12:05:28;;;;;;;;;0.00;0.00;;;;;37.84;19.78;100931.00;5050331;28;45404;-76